sensor_id;sensor_type;location;lat;lon;timestamp;P1;durP1;ratioP1;P2;durP2;ratioP2
70829;SDS011;58451;51.550;7.208;2022-08-19T00:02:02;9.40;;;5.60;;
70829;SDS011;58451;51.550;7.208;2022-08-19T00:04:33;9.50;;;5.50;;
70829;SDS011;58451;51.550;7.208;2022-08-19T00:07:05;9.40;;;5.30;;
70829;SDS011;58451;51.550;7.208;2022-08-19T00:09:33;10.60;;;5.40;;
70829;SDS011;58451;51.550;7.208;2022-08-19T00:12:00;8.60;;;5.00;;
70829;SDS011;58451;51.550;7.208;2022-08-19T00:14:28;9.30;;;4.90;;
70829;SDS011;58451;51.550;7.208;2022-08-19T00:16:58;9.60;;;5.20;;
70829;SDS011;58451;51.550;7.208;2022-08-19T00:19:26;10.80;;;5.90;;
70829;SDS011;58451;51.550;7.208;2022-08-19T00:21:53;9.00;;;5.30;;
70829;SDS011;58451;51.550;7.208;2022-08-19T00:24:22;11.20;;;5.40;;
70829;SDS011;58451;51.550;7.208;2022-08-19T00:26:49;10.60;;;5.20;;
70829;SDS011;58451;51.550;7.208;2022-08-19T00:29:19;9.40;;;5.10;;
70829;SDS011;58451;51.550;7.208;2022-08-19T00:31:47;8.80;;;4.60;;
70829;SDS011;58451;51.550;7.208;2022-08-19T00:34:16;9.90;;;5.50;;
70829;SDS011;58451;51.550;7.208;2022-08-19T00:36:43;10.00;;;5.50;;
70829;SDS011;58451;51.550;7.208;2022-08-19T00:39:11;12.00;;;5.80;;
70829;SDS011;58451;51.550;7.208;2022-08-19T00:41:40;11.00;;;5.70;;
70829;SDS011;58451;51.550;7.208;2022-08-19T00:44:15;12.10;;;5.90;;
70829;SDS011;58451;51.550;7.208;2022-08-19T00:46:44;11.70;;;5.80;;
70829;SDS011;58451;51.550;7.208;2022-08-19T00:49:43;11.20;;;6.00;;
70829;SDS011;58451;51.550;7.208;2022-08-19T00:52:32;11.30;;;5.90;;
70829;SDS011;58451;51.550;7.208;2022-08-19T00:55:04;9.80;;;5.30;;
70829;SDS011;58451;51.550;7.208;2022-08-19T00:57:38;10.80;;;5.50;;
70829;SDS011;58451;51.550;7.208;2022-08-19T01:00:11;10.60;;;5.90;;
70829;SDS011;58451;51.550;7.208;2022-08-19T01:02:41;10.70;;;5.80;;
70829;SDS011;58451;51.550;7.208;2022-08-19T01:05:12;12.40;;;6.30;;
70829;SDS011;58451;51.550;7.208;2022-08-19T01:07:42;13.10;;;6.70;;
70829;SDS011;58451;51.550;7.208;2022-08-19T01:10:13;12.30;;;6.80;;
70829;SDS011;58451;51.550;7.208;2022-08-19T01:12:46;11.20;;;6.80;;
70829;SDS011;58451;51.550;7.208;2022-08-19T01:15:20;10.70;;;6.40;;
70829;SDS011;58451;51.550;7.208;2022-08-19T01:17:53;13.00;;;6.20;;
70829;SDS011;58451;51.550;7.208;2022-08-19T01:20:23;11.80;;;6.60;;
70829;SDS011;58451;51.550;7.208;2022-08-19T01:22:54;11.10;;;6.30;;
70829;SDS011;58451;51.550;7.208;2022-08-19T01:25:31;12.60;;;6.00;;
70829;SDS011;58451;51.550;7.208;2022-08-19T01:28:04;10.70;;;5.80;;
70829;SDS011;58451;51.550;7.208;2022-08-19T01:30:37;13.30;;;6.60;;
70829;SDS011;58451;51.550;7.208;2022-08-19T01:33:04;14.50;;;6.20;;
70829;SDS011;58451;51.550;7.208;2022-08-19T01:35:32;11.90;;;6.70;;
70829;SDS011;58451;51.550;7.208;2022-08-19T01:38:07;12.80;;;7.30;;
70829;SDS011;58451;51.550;7.208;2022-08-19T01:40:39;11.50;;;6.50;;
70829;SDS011;58451;51.550;7.208;2022-08-19T01:43:06;11.50;;;6.70;;
70829;SDS011;58451;51.550;7.208;2022-08-19T01:45:34;11.70;;;7.10;;
70829;SDS011;58451;51.550;7.208;2022-08-19T01:48:03;11.40;;;6.30;;
70829;SDS011;58451;51.550;7.208;2022-08-19T01:50:32;11.50;;;6.10;;
70829;SDS011;58451;51.550;7.208;2022-08-19T01:53:04;12.50;;;6.50;;
70829;SDS011;58451;51.550;7.208;2022-08-19T01:55:36;11.90;;;6.40;;
70829;SDS011;58451;51.550;7.208;2022-08-19T01:58:27;12.50;;;6.20;;
70829;SDS011;58451;51.550;7.208;2022-08-19T02:00:59;10.70;;;5.90;;
70829;SDS011;58451;51.550;7.208;2022-08-19T02:03:26;12.40;;;6.50;;
70829;SDS011;58451;51.550;7.208;2022-08-19T02:05:58;12.30;;;6.80;;
70829;SDS011;58451;51.550;7.208;2022-08-19T02:08:28;10.20;;;6.10;;
70829;SDS011;58451;51.550;7.208;2022-08-19T02:10:56;11.50;;;6.30;;
70829;SDS011;58451;51.550;7.208;2022-08-19T02:13:24;13.10;;;6.60;;
70829;SDS011;58451;51.550;7.208;2022-08-19T02:15:52;13.80;;;6.70;;
70829;SDS011;58451;51.550;7.208;2022-08-19T02:18:19;12.80;;;7.00;;
70829;SDS011;58451;51.550;7.208;2022-08-19T02:20:53;13.70;;;7.40;;
70829;SDS011;58451;51.550;7.208;2022-08-19T02:23:20;17.60;;;7.40;;
70829;SDS011;58451;51.550;7.208;2022-08-19T02:25:47;15.00;;;7.20;;
70829;SDS011;58451;51.550;7.208;2022-08-19T02:28:15;11.20;;;7.20;;
70829;SDS011;58451;51.550;7.208;2022-08-19T02:30:45;14.20;;;7.80;;
70829;SDS011;58451;51.550;7.208;2022-08-19T02:33:13;12.50;;;7.30;;
70829;SDS011;58451;51.550;7.208;2022-08-19T02:35:42;11.70;;;7.10;;
70829;SDS011;58451;51.550;7.208;2022-08-19T02:38:13;12.70;;;7.60;;
70829;SDS011;58451;51.550;7.208;2022-08-19T02:41:01;14.80;;;7.60;;
70829;SDS011;58451;51.550;7.208;2022-08-19T02:43:34;14.80;;;7.40;;
70829;SDS011;58451;51.550;7.208;2022-08-19T02:46:20;12.30;;;7.10;;
70829;SDS011;58451;51.550;7.208;2022-08-19T02:48:51;12.80;;;7.00;;
70829;SDS011;58451;51.550;7.208;2022-08-19T02:51:22;13.60;;;6.70;;
70829;SDS011;58451;51.550;7.208;2022-08-19T02:53:54;11.40;;;6.40;;
70829;SDS011;58451;51.550;7.208;2022-08-19T02:56:21;12.70;;;6.70;;
70829;SDS011;58451;51.550;7.208;2022-08-19T02:58:50;13.00;;;7.30;;
70829;SDS011;58451;51.550;7.208;2022-08-19T03:01:29;14.50;;;7.90;;
70829;SDS011;58451;51.550;7.208;2022-08-19T03:04:02;15.50;;;8.70;;
70829;SDS011;58451;51.550;7.208;2022-08-19T03:06:31;14.90;;;7.60;;
70829;SDS011;58451;51.550;7.208;2022-08-19T03:08:58;12.80;;;7.20;;
70829;SDS011;58451;51.550;7.208;2022-08-19T03:11:28;14.60;;;8.40;;
70829;SDS011;58451;51.550;7.208;2022-08-19T03:13:57;14.30;;;8.30;;
70829;SDS011;58451;51.550;7.208;2022-08-19T03:16:29;15.00;;;9.20;;
70829;SDS011;58451;51.550;7.208;2022-08-19T03:19:00;14.00;;;7.90;;
70829;SDS011;58451;51.550;7.208;2022-08-19T03:21:32;14.60;;;8.00;;
70829;SDS011;58451;51.550;7.208;2022-08-19T03:24:06;16.20;;;8.60;;
70829;SDS011;58451;51.550;7.208;2022-08-19T03:26:39;14.70;;;8.20;;
70829;SDS011;58451;51.550;7.208;2022-08-19T03:29:12;16.70;;;8.70;;
70829;SDS011;58451;51.550;7.208;2022-08-19T03:31:41;14.60;;;8.30;;
70829;SDS011;58451;51.550;7.208;2022-08-19T03:34:24;18.10;;;9.10;;
70829;SDS011;58451;51.550;7.208;2022-08-19T03:36:55;18.70;;;9.70;;
70829;SDS011;58451;51.550;7.208;2022-08-19T03:39:25;17.10;;;8.50;;
70829;SDS011;58451;51.550;7.208;2022-08-19T03:41:54;16.60;;;8.50;;
70829;SDS011;58451;51.550;7.208;2022-08-19T03:44:46;17.80;;;9.30;;
70829;SDS011;58451;51.550;7.208;2022-08-19T03:47:13;19.10;;;9.60;;
70829;SDS011;58451;51.550;7.208;2022-08-19T03:49:44;16.60;;;9.00;;
70829;SDS011;58451;51.550;7.208;2022-08-19T03:52:11;17.30;;;9.40;;
70829;SDS011;58451;51.550;7.208;2022-08-19T03:54:39;16.90;;;10.00;;
70829;SDS011;58451;51.550;7.208;2022-08-19T03:57:06;17.50;;;9.40;;
70829;SDS011;58451;51.550;7.208;2022-08-19T03:59:36;17.50;;;10.00;;
70829;SDS011;58451;51.550;7.208;2022-08-19T04:02:11;18.60;;;10.10;;
70829;SDS011;58451;51.550;7.208;2022-08-19T04:04:42;18.40;;;10.70;;
70829;SDS011;58451;51.550;7.208;2022-08-19T04:07:11;19.30;;;10.80;;
70829;SDS011;58451;51.550;7.208;2022-08-19T04:09:48;20.00;;;11.80;;
70829;SDS011;58451;51.550;7.208;2022-08-19T04:12:15;20.60;;;11.20;;
70829;SDS011;58451;51.550;7.208;2022-08-19T04:14:42;21.70;;;12.10;;
70829;SDS011;58451;51.550;7.208;2022-08-19T04:17:09;18.70;;;10.80;;
70829;SDS011;58451;51.550;7.208;2022-08-19T04:19:36;18.50;;;10.50;;
70829;SDS011;58451;51.550;7.208;2022-08-19T04:22:04;19.50;;;10.30;;
70829;SDS011;58451;51.550;7.208;2022-08-19T04:24:31;20.60;;;10.70;;
70829;SDS011;58451;51.550;7.208;2022-08-19T04:27:02;18.70;;;10.30;;
70829;SDS011;58451;51.550;7.208;2022-08-19T04:29:30;17.00;;;10.20;;
70829;SDS011;58451;51.550;7.208;2022-08-19T04:31:57;17.60;;;10.10;;
70829;SDS011;58451;51.550;7.208;2022-08-19T04:34:35;19.50;;;10.10;;
70829;SDS011;58451;51.550;7.208;2022-08-19T04:37:23;20.30;;;11.50;;
70829;SDS011;58451;51.550;7.208;2022-08-19T04:39:51;20.80;;;11.50;;
70829;SDS011;58451;51.550;7.208;2022-08-19T04:42:36;17.70;;;10.10;;
70829;SDS011;58451;51.550;7.208;2022-08-19T04:45:09;18.10;;;9.60;;
70829;SDS011;58451;51.550;7.208;2022-08-19T04:47:42;17.40;;;9.80;;
70829;SDS011;58451;51.550;7.208;2022-08-19T04:50:25;17.00;;;9.90;;
70829;SDS011;58451;51.550;7.208;2022-08-19T04:52:53;19.70;;;10.80;;
70829;SDS011;58451;51.550;7.208;2022-08-19T04:55:23;18.30;;;9.90;;
70829;SDS011;58451;51.550;7.208;2022-08-19T04:57:53;19.50;;;9.90;;
70829;SDS011;58451;51.550;7.208;2022-08-19T05:00:20;17.30;;;10.20;;
70829;SDS011;58451;51.550;7.208;2022-08-19T05:02:47;17.00;;;10.50;;
70829;SDS011;58451;51.550;7.208;2022-08-19T05:05:15;18.40;;;9.70;;
70829;SDS011;58451;51.550;7.208;2022-08-19T05:07:42;16.80;;;9.30;;
70829;SDS011;58451;51.550;7.208;2022-08-19T05:10:09;18.40;;;9.10;;
70829;SDS011;58451;51.550;7.208;2022-08-19T05:12:36;15.90;;;9.50;;
70829;SDS011;58451;51.550;7.208;2022-08-19T05:15:05;16.40;;;9.50;;
70829;SDS011;58451;51.550;7.208;2022-08-19T05:17:35;14.70;;;8.60;;
70829;SDS011;58451;51.550;7.208;2022-08-19T05:20:07;16.60;;;9.80;;
70829;SDS011;58451;51.550;7.208;2022-08-19T05:22:54;16.50;;;9.40;;
70829;SDS011;58451;51.550;7.208;2022-08-19T05:25:22;15.30;;;9.30;;
70829;SDS011;58451;51.550;7.208;2022-08-19T05:27:49;17.20;;;9.70;;
70829;SDS011;58451;51.550;7.208;2022-08-19T05:30:17;15.60;;;9.80;;
70829;SDS011;58451;51.550;7.208;2022-08-19T05:33:04;17.50;;;8.90;;
70829;SDS011;58451;51.550;7.208;2022-08-19T05:35:31;20.10;;;12.80;;
70829;SDS011;58451;51.550;7.208;2022-08-19T05:38:00;16.40;;;10.40;;
70829;SDS011;58451;51.550;7.208;2022-08-19T05:40:27;18.90;;;10.80;;
70829;SDS011;58451;51.550;7.208;2022-08-19T05:42:54;14.50;;;9.70;;
70829;SDS011;58451;51.550;7.208;2022-08-19T05:45:22;19.90;;;12.60;;
70829;SDS011;58451;51.550;7.208;2022-08-19T05:47:49;17.10;;;11.30;;
70829;SDS011;58451;51.550;7.208;2022-08-19T05:50:16;17.60;;;11.20;;
70829;SDS011;58451;51.550;7.208;2022-08-19T05:52:44;17.10;;;10.50;;
70829;SDS011;58451;51.550;7.208;2022-08-19T05:55:16;17.30;;;9.80;;
70829;SDS011;58451;51.550;7.208;2022-08-19T05:57:43;14.80;;;9.40;;
70829;SDS011;58451;51.550;7.208;2022-08-19T06:00:10;15.40;;;9.30;;
70829;SDS011;58451;51.550;7.208;2022-08-19T06:02:39;19.80;;;10.30;;
70829;SDS011;58451;51.550;7.208;2022-08-19T06:05:07;13.40;;;8.70;;
70829;SDS011;58451;51.550;7.208;2022-08-19T06:07:37;14.40;;;9.20;;
70829;SDS011;58451;51.550;7.208;2022-08-19T06:10:07;15.90;;;9.30;;
70829;SDS011;58451;51.550;7.208;2022-08-19T06:12:37;14.10;;;9.00;;
70829;SDS011;58451;51.550;7.208;2022-08-19T06:15:10;14.40;;;8.90;;
70829;SDS011;58451;51.550;7.208;2022-08-19T06:17:39;16.50;;;9.30;;
70829;SDS011;58451;51.550;7.208;2022-08-19T06:20:10;15.10;;;10.30;;
70829;SDS011;58451;51.550;7.208;2022-08-19T06:22:45;17.50;;;10.00;;
70829;SDS011;58451;51.550;7.208;2022-08-19T06:25:15;16.50;;;10.00;;
70829;SDS011;58451;51.550;7.208;2022-08-19T06:27:44;16.80;;;10.60;;
70829;SDS011;58451;51.550;7.208;2022-08-19T06:30:31;17.00;;;10.00;;
70829;SDS011;58451;51.550;7.208;2022-08-19T06:32:58;16.70;;;10.50;;
70829;SDS011;58451;51.550;7.208;2022-08-19T06:35:25;14.20;;;8.90;;
70829;SDS011;58451;51.550;7.208;2022-08-19T06:37:53;14.60;;;9.40;;
70829;SDS011;58451;51.550;7.208;2022-08-19T06:40:21;14.20;;;9.30;;
70829;SDS011;58451;51.550;7.208;2022-08-19T06:42:48;15.80;;;10.10;;
70829;SDS011;58451;51.550;7.208;2022-08-19T06:45:21;16.00;;;9.80;;
70829;SDS011;58451;51.550;7.208;2022-08-19T06:47:51;16.40;;;9.90;;
70829;SDS011;58451;51.550;7.208;2022-08-19T06:50:21;17.00;;;10.80;;
70829;SDS011;58451;51.550;7.208;2022-08-19T06:52:51;16.10;;;8.90;;
70829;SDS011;58451;51.550;7.208;2022-08-19T06:55:19;19.40;;;10.70;;
70829;SDS011;58451;51.550;7.208;2022-08-19T06:57:46;17.00;;;9.70;;
70829;SDS011;58451;51.550;7.208;2022-08-19T07:00:14;16.90;;;9.80;;
70829;SDS011;58451;51.550;7.208;2022-08-19T07:02:43;18.80;;;11.70;;
70829;SDS011;58451;51.550;7.208;2022-08-19T07:05:21;20.10;;;12.50;;
70829;SDS011;58451;51.550;7.208;2022-08-19T07:07:48;20.10;;;11.90;;
70829;SDS011;58451;51.550;7.208;2022-08-19T07:10:17;15.30;;;10.60;;
70829;SDS011;58451;51.550;7.208;2022-08-19T07:12:44;16.00;;;10.50;;
70829;SDS011;58451;51.550;7.208;2022-08-19T07:15:12;17.80;;;11.00;;
70829;SDS011;58451;51.550;7.208;2022-08-19T07:17:39;19.50;;;10.80;;
70829;SDS011;58451;51.550;7.208;2022-08-19T07:20:08;18.90;;;10.50;;
70829;SDS011;58451;51.550;7.208;2022-08-19T07:22:37;17.20;;;10.60;;
70829;SDS011;58451;51.550;7.208;2022-08-19T07:25:07;21.90;;;12.10;;
70829;SDS011;58451;51.550;7.208;2022-08-19T07:27:35;17.30;;;10.70;;
70829;SDS011;58451;51.550;7.208;2022-08-19T07:30:07;18.50;;;11.40;;
70829;SDS011;58451;51.550;7.208;2022-08-19T07:32:37;21.50;;;11.20;;
70829;SDS011;58451;51.550;7.208;2022-08-19T07:35:06;17.40;;;9.70;;
70829;SDS011;58451;51.550;7.208;2022-08-19T07:37:33;19.70;;;10.60;;
70829;SDS011;58451;51.550;7.208;2022-08-19T07:40:04;19.40;;;10.80;;
70829;SDS011;58451;51.550;7.208;2022-08-19T07:42:33;18.90;;;9.60;;
70829;SDS011;58451;51.550;7.208;2022-08-19T07:44:59;16.90;;;10.20;;
70829;SDS011;58451;51.550;7.208;2022-08-19T07:47:27;20.30;;;11.40;;
70829;SDS011;58451;51.550;7.208;2022-08-19T07:50:14;17.80;;;10.20;;
70829;SDS011;58451;51.550;7.208;2022-08-19T07:52:41;19.50;;;10.60;;
70829;SDS011;58451;51.550;7.208;2022-08-19T07:55:17;18.90;;;11.20;;
70829;SDS011;58451;51.550;7.208;2022-08-19T07:58:06;19.60;;;11.50;;
70829;SDS011;58451;51.550;7.208;2022-08-19T08:00:33;24.10;;;11.50;;
70829;SDS011;58451;51.550;7.208;2022-08-19T08:03:01;22.10;;;12.60;;
70829;SDS011;58451;51.550;7.208;2022-08-19T08:05:28;21.20;;;13.60;;
70829;SDS011;58451;51.550;7.208;2022-08-19T08:08:14;20.70;;;11.00;;
70829;SDS011;58451;51.550;7.208;2022-08-19T08:11:15;19.00;;;11.40;;
70829;SDS011;58451;51.550;7.208;2022-08-19T08:13:47;20.90;;;11.90;;
70829;SDS011;58451;51.550;7.208;2022-08-19T08:16:28;23.50;;;13.70;;
70829;SDS011;58451;51.550;7.208;2022-08-19T08:18:57;19.80;;;12.40;;
70829;SDS011;58451;51.550;7.208;2022-08-19T08:21:24;19.80;;;11.50;;
70829;SDS011;58451;51.550;7.208;2022-08-19T08:23:51;21.40;;;13.10;;
70829;SDS011;58451;51.550;7.208;2022-08-19T08:26:22;20.60;;;12.40;;
70829;SDS011;58451;51.550;7.208;2022-08-19T08:28:49;18.80;;;11.60;;
70829;SDS011;58451;51.550;7.208;2022-08-19T08:31:16;20.00;;;12.00;;
70829;SDS011;58451;51.550;7.208;2022-08-19T08:33:46;15.70;;;10.00;;
70829;SDS011;58451;51.550;7.208;2022-08-19T08:36:14;19.20;;;12.00;;
70829;SDS011;58451;51.550;7.208;2022-08-19T08:38:42;20.10;;;12.60;;
70829;SDS011;58451;51.550;7.208;2022-08-19T08:44:04;20.60;;;13.20;;
70829;SDS011;58451;51.550;7.208;2022-08-19T08:47:01;20.10;;;12.30;;
70829;SDS011;58451;51.550;7.208;2022-08-19T08:49:44;21.40;;;13.60;;
70829;SDS011;58451;51.550;7.208;2022-08-19T08:52:44;21.40;;;14.10;;
70829;SDS011;58451;51.550;7.208;2022-08-19T08:55:17;23.60;;;15.60;;
70829;SDS011;58451;51.550;7.208;2022-08-19T08:58:13;20.50;;;14.40;;
70829;SDS011;58451;51.550;7.208;2022-08-19T09:00:48;21.70;;;13.90;;
70829;SDS011;58451;51.550;7.208;2022-08-19T09:03:21;23.60;;;15.10;;
70829;SDS011;58451;51.550;7.208;2022-08-19T09:08:48;21.40;;;14.20;;
70829;SDS011;58451;51.550;7.208;2022-08-19T09:17:19;21.00;;;14.50;;
70829;SDS011;58451;51.550;7.208;2022-08-19T09:20:03;21.30;;;13.50;;
70829;SDS011;58451;51.550;7.208;2022-08-19T09:22:36;14.90;;;10.30;;
70829;SDS011;58451;51.550;7.208;2022-08-19T09:25:06;18.80;;;12.70;;
70829;SDS011;58451;51.550;7.208;2022-08-19T09:27:38;12.50;;;9.50;;
70829;SDS011;58451;51.550;7.208;2022-08-19T09:30:16;15.10;;;9.00;;
70829;SDS011;58451;51.550;7.208;2022-08-19T09:32:46;14.80;;;10.70;;
70829;SDS011;58451;51.550;7.208;2022-08-19T09:35:23;12.70;;;7.70;;
70829;SDS011;58451;51.550;7.208;2022-08-19T09:37:54;16.00;;;11.00;;
70829;SDS011;58451;51.550;7.208;2022-08-19T09:40:26;15.60;;;11.80;;
70829;SDS011;58451;51.550;7.208;2022-08-19T09:42:57;16.90;;;10.30;;
70829;SDS011;58451;51.550;7.208;2022-08-19T09:45:38;14.60;;;10.40;;
70829;SDS011;58451;51.550;7.208;2022-08-19T09:48:05;16.00;;;11.60;;
70829;SDS011;58451;51.550;7.208;2022-08-19T09:50:32;14.90;;;11.20;;
70829;SDS011;58451;51.550;7.208;2022-08-19T09:53:01;16.80;;;12.00;;
70829;SDS011;58451;51.550;7.208;2022-08-19T09:55:28;14.30;;;10.70;;
70829;SDS011;58451;51.550;7.208;2022-08-19T09:58:01;15.60;;;10.70;;
70829;SDS011;58451;51.550;7.208;2022-08-19T10:00:29;13.80;;;9.50;;
70829;SDS011;58451;51.550;7.208;2022-08-19T10:02:57;15.90;;;10.70;;
70829;SDS011;58451;51.550;7.208;2022-08-19T10:05:24;14.70;;;10.50;;
70829;SDS011;58451;51.550;7.208;2022-08-19T10:08:18;17.00;;;11.70;;
70829;SDS011;58451;51.550;7.208;2022-08-19T10:10:49;15.70;;;10.50;;
70829;SDS011;58451;51.550;7.208;2022-08-19T10:13:22;12.70;;;9.20;;
70829;SDS011;58451;51.550;7.208;2022-08-19T10:15:53;11.40;;;8.00;;
70829;SDS011;58451;51.550;7.208;2022-08-19T10:18:23;13.80;;;10.30;;
70829;SDS011;58451;51.550;7.208;2022-08-19T10:20:52;15.80;;;11.20;;
70829;SDS011;58451;51.550;7.208;2022-08-19T10:23:28;16.60;;;11.60;;
70829;SDS011;58451;51.550;7.208;2022-08-19T10:26:00;14.70;;;11.40;;
70829;SDS011;58451;51.550;7.208;2022-08-19T10:28:27;12.90;;;10.30;;
70829;SDS011;58451;51.550;7.208;2022-08-19T10:30:55;12.30;;;9.20;;
70829;SDS011;58451;51.550;7.208;2022-08-19T10:33:22;12.20;;;9.30;;
70829;SDS011;58451;51.550;7.208;2022-08-19T10:36:21;15.70;;;9.60;;
70829;SDS011;58451;51.550;7.208;2022-08-19T10:38:52;10.50;;;8.10;;
70829;SDS011;58451;51.550;7.208;2022-08-19T10:41:34;12.90;;;9.80;;
70829;SDS011;58451;51.550;7.208;2022-08-19T10:44:08;14.90;;;10.30;;
70829;SDS011;58451;51.550;7.208;2022-08-19T10:46:41;14.50;;;10.70;;
70829;SDS011;58451;51.550;7.208;2022-08-19T10:49:15;15.50;;;10.70;;
70829;SDS011;58451;51.550;7.208;2022-08-19T10:51:42;15.00;;;11.80;;
70829;SDS011;58451;51.550;7.208;2022-08-19T10:54:28;14.20;;;8.50;;
70829;SDS011;58451;51.550;7.208;2022-08-19T10:57:15;12.30;;;8.70;;
70829;SDS011;58451;51.550;7.208;2022-08-19T10:59:42;13.40;;;9.30;;
70829;SDS011;58451;51.550;7.208;2022-08-19T11:02:11;12.00;;;9.20;;
70829;SDS011;58451;51.550;7.208;2022-08-19T11:04:39;10.60;;;8.80;;
70829;SDS011;58451;51.550;7.208;2022-08-19T11:07:07;11.10;;;7.90;;
70829;SDS011;58451;51.550;7.208;2022-08-19T11:09:40;9.70;;;7.10;;
70829;SDS011;58451;51.550;7.208;2022-08-19T11:12:09;11.20;;;8.20;;
70829;SDS011;58451;51.550;7.208;2022-08-19T11:14:38;12.40;;;9.20;;
70829;SDS011;58451;51.550;7.208;2022-08-19T11:17:06;9.80;;;7.10;;
70829;SDS011;58451;51.550;7.208;2022-08-19T11:19:34;12.00;;;9.60;;
70829;SDS011;58451;51.550;7.208;2022-08-19T11:22:02;11.10;;;7.60;;
70829;SDS011;58451;51.550;7.208;2022-08-19T11:24:30;12.90;;;9.80;;
70829;SDS011;58451;51.550;7.208;2022-08-19T11:27:03;14.20;;;10.80;;
70829;SDS011;58451;51.550;7.208;2022-08-19T11:29:32;14.90;;;10.70;;
70829;SDS011;58451;51.550;7.208;2022-08-19T11:32:07;14.60;;;10.80;;
70829;SDS011;58451;51.550;7.208;2022-08-19T11:34:37;16.60;;;13.00;;
70829;SDS011;58451;51.550;7.208;2022-08-19T11:37:04;15.90;;;11.10;;
70829;SDS011;58451;51.550;7.208;2022-08-19T11:39:33;14.30;;;10.80;;
70829;SDS011;58451;51.550;7.208;2022-08-19T11:42:03;14.50;;;11.50;;
70829;SDS011;58451;51.550;7.208;2022-08-19T11:44:52;15.80;;;11.60;;
70829;SDS011;58451;51.550;7.208;2022-08-19T11:47:19;14.00;;;10.10;;
70829;SDS011;58451;51.550;7.208;2022-08-19T11:49:46;13.80;;;10.50;;
70829;SDS011;58451;51.550;7.208;2022-08-19T11:52:14;16.10;;;11.70;;
70829;SDS011;58451;51.550;7.208;2022-08-19T11:54:40;16.10;;;11.60;;
70829;SDS011;58451;51.550;7.208;2022-08-19T11:57:07;14.80;;;11.90;;
70829;SDS011;58451;51.550;7.208;2022-08-19T11:59:34;16.30;;;12.40;;
70829;SDS011;58451;51.550;7.208;2022-08-19T12:02:01;16.40;;;12.70;;
70829;SDS011;58451;51.550;7.208;2022-08-19T12:04:28;17.50;;;14.40;;
70829;SDS011;58451;51.550;7.208;2022-08-19T12:06:55;18.80;;;13.70;;
70829;SDS011;58451;51.550;7.208;2022-08-19T12:09:21;18.30;;;14.20;;
70829;SDS011;58451;51.550;7.208;2022-08-19T12:11:48;15.60;;;13.20;;
70829;SDS011;58451;51.550;7.208;2022-08-19T12:14:17;16.90;;;14.40;;
70829;SDS011;58451;51.550;7.208;2022-08-19T12:16:45;15.20;;;12.10;;
70829;SDS011;58451;51.550;7.208;2022-08-19T12:19:18;13.80;;;11.60;;
70829;SDS011;58451;51.550;7.208;2022-08-19T12:21:49;14.70;;;10.50;;
70829;SDS011;58451;51.550;7.208;2022-08-19T12:24:17;13.00;;;10.70;;
70829;SDS011;58451;51.550;7.208;2022-08-19T12:26:50;13.50;;;11.10;;
70829;SDS011;58451;51.550;7.208;2022-08-19T12:29:20;11.30;;;8.80;;
70829;SDS011;58451;51.550;7.208;2022-08-19T12:31:50;13.70;;;11.00;;
70829;SDS011;58451;51.550;7.208;2022-08-19T12:34:17;13.30;;;10.50;;
70829;SDS011;58451;51.550;7.208;2022-08-19T12:36:46;13.00;;;10.20;;
70829;SDS011;58451;51.550;7.208;2022-08-19T12:39:16;15.30;;;10.70;;
70829;SDS011;58451;51.550;7.208;2022-08-19T12:41:42;15.50;;;10.40;;
70829;SDS011;58451;51.550;7.208;2022-08-19T12:44:21;14.80;;;12.50;;
70829;SDS011;58451;51.550;7.208;2022-08-19T12:46:58;13.60;;;10.80;;
70829;SDS011;58451;51.550;7.208;2022-08-19T12:49:28;13.30;;;10.60;;
70829;SDS011;58451;51.550;7.208;2022-08-19T12:52:15;12.10;;;10.00;;
70829;SDS011;58451;51.550;7.208;2022-08-19T12:54:49;10.30;;;7.90;;
70829;SDS011;58451;51.550;7.208;2022-08-19T12:57:19;10.00;;;8.20;;
70829;SDS011;58451;51.550;7.208;2022-08-19T12:59:52;10.70;;;8.30;;
70829;SDS011;58451;51.550;7.208;2022-08-19T13:02:20;10.50;;;8.00;;
70829;SDS011;58451;51.550;7.208;2022-08-19T13:04:47;11.90;;;7.40;;
70829;SDS011;58451;51.550;7.208;2022-08-19T13:07:14;11.80;;;8.10;;
70829;SDS011;58451;51.550;7.208;2022-08-19T13:09:41;11.80;;;9.60;;
70829;SDS011;58451;51.550;7.208;2022-08-19T13:12:09;11.90;;;9.30;;
70829;SDS011;58451;51.550;7.208;2022-08-19T13:14:40;9.60;;;8.00;;
70829;SDS011;58451;51.550;7.208;2022-08-19T13:17:07;11.40;;;8.00;;
70829;SDS011;58451;51.550;7.208;2022-08-19T13:19:36;11.70;;;9.00;;
70829;SDS011;58451;51.550;7.208;2022-08-19T13:22:03;11.10;;;8.10;;
70829;SDS011;58451;51.550;7.208;2022-08-19T13:24:40;9.00;;;7.20;;
70829;SDS011;58451;51.550;7.208;2022-08-19T13:27:12;11.30;;;8.40;;
70829;SDS011;58451;51.550;7.208;2022-08-19T13:29:41;10.80;;;8.40;;
70829;SDS011;58451;51.550;7.208;2022-08-19T13:32:29;9.20;;;7.50;;
70829;SDS011;58451;51.550;7.208;2022-08-19T13:35:16;10.50;;;7.20;;
70829;SDS011;58451;51.550;7.208;2022-08-19T13:37:43;8.40;;;6.50;;
70829;SDS011;58451;51.550;7.208;2022-08-19T13:40:14;9.60;;;6.30;;
70829;SDS011;58451;51.550;7.208;2022-08-19T13:42:47;8.70;;;6.10;;
70829;SDS011;58451;51.550;7.208;2022-08-19T13:45:19;9.50;;;6.30;;
70829;SDS011;58451;51.550;7.208;2022-08-19T13:47:50;8.90;;;5.10;;
70829;SDS011;58451;51.550;7.208;2022-08-19T13:50:27;9.50;;;6.50;;
70829;SDS011;58451;51.550;7.208;2022-08-19T13:52:57;7.40;;;5.40;;
70829;SDS011;58451;51.550;7.208;2022-08-19T13:55:25;8.70;;;5.90;;
70829;SDS011;58451;51.550;7.208;2022-08-19T13:57:55;7.70;;;5.50;;
70829;SDS011;58451;51.550;7.208;2022-08-19T14:00:30;9.20;;;6.00;;
70829;SDS011;58451;51.550;7.208;2022-08-19T14:02:59;8.30;;;5.80;;
70829;SDS011;58451;51.550;7.208;2022-08-19T14:05:30;9.10;;;6.80;;
70829;SDS011;58451;51.550;7.208;2022-08-19T14:07:58;7.70;;;5.90;;
70829;SDS011;58451;51.550;7.208;2022-08-19T14:10:26;8.10;;;6.40;;
70829;SDS011;58451;51.550;7.208;2022-08-19T14:12:55;9.00;;;6.20;;
70829;SDS011;58451;51.550;7.208;2022-08-19T14:15:25;7.10;;;5.70;;
70829;SDS011;58451;51.550;7.208;2022-08-19T14:17:53;8.10;;;6.20;;
70829;SDS011;58451;51.550;7.208;2022-08-19T14:20:21;7.50;;;6.70;;
70829;SDS011;58451;51.550;7.208;2022-08-19T14:22:52;7.60;;;5.70;;
70829;SDS011;58451;51.550;7.208;2022-08-19T14:25:25;8.10;;;7.00;;
70829;SDS011;58451;51.550;7.208;2022-08-19T14:27:54;7.20;;;5.80;;
70829;SDS011;58451;51.550;7.208;2022-08-19T14:30:25;7.70;;;6.10;;
70829;SDS011;58451;51.550;7.208;2022-08-19T14:32:59;7.80;;;5.40;;
70829;SDS011;58451;51.550;7.208;2022-08-19T14:35:28;7.90;;;7.10;;
70829;SDS011;58451;51.550;7.208;2022-08-19T14:37:56;7.50;;;6.70;;
70829;SDS011;58451;51.550;7.208;2022-08-19T14:40:26;7.10;;;5.90;;
70829;SDS011;58451;51.550;7.208;2022-08-19T14:42:56;9.00;;;6.40;;
70829;SDS011;58451;51.550;7.208;2022-08-19T14:45:32;8.50;;;7.60;;
70829;SDS011;58451;51.550;7.208;2022-08-19T14:48:03;8.30;;;7.50;;
70829;SDS011;58451;51.550;7.208;2022-08-19T14:50:31;8.00;;;7.00;;
70829;SDS011;58451;51.550;7.208;2022-08-19T14:53:03;8.40;;;7.20;;
70829;SDS011;58451;51.550;7.208;2022-08-19T14:55:42;10.70;;;9.70;;
70829;SDS011;58451;51.550;7.208;2022-08-19T14:58:12;9.60;;;8.70;;
70829;SDS011;58451;51.550;7.208;2022-08-19T15:00:56;10.50;;;9.10;;
70829;SDS011;58451;51.550;7.208;2022-08-19T15:03:28;10.10;;;9.00;;
70829;SDS011;58451;51.550;7.208;2022-08-19T15:05:55;9.50;;;8.50;;
70829;SDS011;58451;51.550;7.208;2022-08-19T15:08:24;9.50;;;8.50;;